Holly Ann — WDE9094 — position and weather

sailwx.info

Track history (hours):
 
Tides and Currents Weather Stations Pressure Air Temp Water Temp Dewpoint Dewpoint Depression Visibility Wind Speed Wind Dir Waves Ship Positions

Holly Ann

Owner: Manke Tug and Barge Co., Inc., Shelton, WA. More information available from US FCC via Universal Licensing System and Coast Guard Vessel Documentation Center.

Last reported at 2016-Aug-18 09:05 UTC. Time now 2016-Aug-24 08:32 UTC.
Position N 47°12' W 122°37'.

; draft 4.5 m.

Type: Towing. MMSI: 367413350.

Date/timePositionNaut miles runAvg speedWind from/ knotsBaromVisibWave heightAir tempDewpointWater temp
2016-Aug-18 09:05N 47°12' W 122°37'4 8.3
2016-Aug-18 08:33N 47°16' W 122°33'7 7.3
2016-Aug-18 07:34N 47°23' W 122°32'6 6.5
2016-Aug-18 06:33N 47°29' W 122°30'6 6.3
2016-Aug-18 05:34N 47°35' W 122°26'4 3.8
2016-Aug-18 04:33N 47°33' W 122°21'0 0.0
2016-Aug-18 03:33N 47°33' W 122°21'0 0.0
2016-Aug-18 02:33N 47°33' W 122°21'0 0.0
2016-Aug-18 01:33N 47°33' W 122°21'0 0.0
2016-Aug-18 00:33N 47°33' W 122°21'0 0.0
2016-Aug-17 23:33N 47°33' W 122°21'0 0.0
2016-Aug-17 22:33N 47°33' W 122°21'0 0.0
2016-Aug-17 21:33N 47°33' W 122°21'0 0.0
2016-Aug-17 20:33N 47°33' W 122°21'0 0.1
2016-Aug-17 19:33N 47°33' W 122°21'0 0.5
2016-Aug-17 18:33N 47°34' W 122°21'3 3.1
2016-Aug-17 17:33N 47°36' W 122°25'7 6.9
2016-Aug-17 16:33N 47°30' W 122°30'8 8.2
2016-Aug-17 15:33N 47°22' W 122°32'9 9.3
2016-Aug-17 14:33N 47°13' W 122°36'1 0.1
2016-Aug-16 21:11N 47°12' W 122°38'711.1
2016-Aug-16 20:33N 47°18' W 122°33'8 7.6
2016-Aug-16 19:33N 47°26' W 122°32'7 7.3
2016-Aug-16 18:33N 47°33' W 122°28'8 7.6
2016-Aug-16 17:33N 47°40' W 122°28'2 2.3
2016-Aug-16 16:33N 47°41' W 122°25'0 0.0
2016-Aug-16 15:33N 47°41' W 122°25'0 0.0
2016-Aug-16 14:33N 47°41' W 122°25'0 0.0
2016-Aug-16 13:33N 47°41' W 122°25'5 4.7
2016-Aug-16 12:33N 47°46' W 122°25'8 7.9
2016-Aug-16 11:33N 47°53' W 122°22'8 7.9
2016-Aug-16 10:33N 47°59' W 122°14'3 2.5
2016-Aug-16 09:33N 48°01' W 122°11'0 0.0
2016-Aug-16 08:33N 48°01' W 122°11'0 0.0
2016-Aug-16 07:33N 48°01' W 122°11'0 0.0
2016-Aug-16 06:29N 48°01' W 122°11'0 0.0
2016-Aug-16 04:30N 48°01' W 122°11'0 0.0
2016-Aug-16 03:33N 48°01' W 122°11'0 0.0
2016-Aug-16 02:18N 48°01' W 122°11'0 0.0
2016-Aug-16 01:33N 48°01' W 122°11'0 0.0
2016-Aug-16 00:17N 48°01' W 122°11'1 1.9
2016-Aug-15 23:33N 48°01' W 122°13'3 3.2
2016-Aug-15 22:33N 47°58' W 122°16'3 2.8
2016-Aug-15 21:33N 47°57' W 122°20'4 3.5
2016-Aug-15 20:33N 47°54' W 122°21'4 3.6
2016-Aug-15 19:33N 47°51' W 122°23'3 3.3
2016-Aug-15 18:33N 47°47' W 122°25'3 3.4
2016-Aug-15 17:33N 47°44' W 122°26'5 4.7
2016-Aug-15 16:34N 47°40' W 122°27'6 5.8
2016-Aug-15 15:33N 47°34' W 122°27'7 7.0
2016-Aug-15 14:34N 47°27' W 122°31'7 7.2
2016-Aug-15 13:33N 47°20' W 122°33'8 8.1
2016-Aug-15 12:31N 47°12' W 122°37'  
Track history (hours):
 
Tides and Currents Weather Stations Pressure Air Temp Water Temp Dewpoint Dewpoint Depression Visibility Wind Speed Wind Dir Waves Ship Positions

Holly Ann

Owner: Manke Tug and Barge Co., Inc., Shelton, WA. More information available from US FCC via Universal Licensing System and Coast Guard Vessel Documentation Center.

Last reported at 2016-Aug-18 09:05 UTC. Time now 2016-Aug-24 08:32 UTC.
Position N 47°12' W 122°37'.

; draft 4.5 m.

Type: Towing. MMSI: 367413350.

Date/timePositionNaut miles runAvg speedWind from/ knotsBaromVisibWave heightAir tempDewpointWater temp
2016-Aug-18 09:05N 47°12' W 122°37'4 8.3
2016-Aug-18 08:33N 47°16' W 122°33'7 7.3
2016-Aug-18 07:34N 47°23' W 122°32'6 6.5
2016-Aug-18 06:33N 47°29' W 122°30'6 6.3
2016-Aug-18 05:34N 47°35' W 122°26'4 3.8
2016-Aug-18 04:33N 47°33' W 122°21'0 0.0
2016-Aug-18 03:33N 47°33' W 122°21'0 0.0
2016-Aug-18 02:33N 47°33' W 122°21'0 0.0
2016-Aug-18 01:33N 47°33' W 122°21'0 0.0
2016-Aug-18 00:33N 47°33' W 122°21'0 0.0
2016-Aug-17 23:33N 47°33' W 122°21'0 0.0
2016-Aug-17 22:33N 47°33' W 122°21'0 0.0
2016-Aug-17 21:33N 47°33' W 122°21'0 0.0
2016-Aug-17 20:33N 47°33' W 122°21'0 0.1
2016-Aug-17 19:33N 47°33' W 122°21'0 0.5
2016-Aug-17 18:33N 47°34' W 122°21'3 3.1
2016-Aug-17 17:33N 47°36' W 122°25'7 6.9
2016-Aug-17 16:33N 47°30' W 122°30'8 8.2
2016-Aug-17 15:33N 47°22' W 122°32'9 9.3
2016-Aug-17 14:33N 47°13' W 122°36'1 0.1
2016-Aug-16 21:11N 47°12' W 122°38'711.1
2016-Aug-16 20:33N 47°18' W 122°33'8 7.6
2016-Aug-16 19:33N 47°26' W 122°32'7 7.3
2016-Aug-16 18:33N 47°33' W 122°28'8 7.6
2016-Aug-16 17:33N 47°40' W 122°28'2 2.3
2016-Aug-16 16:33N 47°41' W 122°25'0 0.0
2016-Aug-16 15:33N 47°41' W 122°25'0 0.0
2016-Aug-16 14:33N 47°41' W 122°25'0 0.0
2016-Aug-16 13:33N 47°41' W 122°25'5 4.7
2016-Aug-16 12:33N 47°46' W 122°25'8 7.9
2016-Aug-16 11:33N 47°53' W 122°22'8 7.9
2016-Aug-16 10:33N 47°59' W 122°14'3 2.5
2016-Aug-16 09:33N 48°01' W 122°11'0 0.0
2016-Aug-16 08:33N 48°01' W 122°11'0 0.0
2016-Aug-16 07:33N 48°01' W 122°11'0 0.0
2016-Aug-16 06:29N 48°01' W 122°11'0 0.0
2016-Aug-16 04:30N 48°01' W 122°11'0 0.0
2016-Aug-16 03:33N 48°01' W 122°11'0 0.0
2016-Aug-16 02:18N 48°01' W 122°11'0 0.0
2016-Aug-16 01:33N 48°01' W 122°11'0 0.0
2016-Aug-16 00:17N 48°01' W 122°11'1 1.9
2016-Aug-15 23:33N 48°01' W 122°13'3 3.2
2016-Aug-15 22:33N 47°58' W 122°16'3 2.8
2016-Aug-15 21:33N 47°57' W 122°20'4 3.5
2016-Aug-15 20:33N 47°54' W 122°21'4 3.6
2016-Aug-15 19:33N 47°51' W 122°23'3 3.3
2016-Aug-15 18:33N 47°47' W 122°25'3 3.4
2016-Aug-15 17:33N 47°44' W 122°26'5 4.7
2016-Aug-15 16:34N 47°40' W 122°27'6 5.8
2016-Aug-15 15:33N 47°34' W 122°27'7 7.0
2016-Aug-15 14:34N 47°27' W 122°31'7 7.2
2016-Aug-15 13:33N 47°20' W 122°33'8 8.1
2016-Aug-15 12:31N 47°12' W 122°37'  

Dump ship's entire track history